createdAt,value
2022-09-28T00:01:13.825Z,1.70
2022-09-28T00:03:40.924Z,3.92
2022-09-28T00:06:11.324Z,2.17
2022-09-28T00:08:38.677Z,4.93
2022-09-28T00:11:07.486Z,4.30
2022-09-28T00:13:35.468Z,8.10
2022-09-28T00:16:09.006Z,5.57
2022-09-28T00:18:36.270Z,4.25
2022-09-28T00:21:05.840Z,1.98
2022-09-28T00:23:34.042Z,7.90
2022-09-28T00:26:05.603Z,3.60
2022-09-28T00:28:33.032Z,1.70
2022-09-28T00:31:01.019Z,5.20
2022-09-28T00:33:28.849Z,2.45
2022-09-28T00:35:59.307Z,2.67
2022-09-28T00:38:28.646Z,5.30
2022-09-28T00:40:56.272Z,4.30
2022-09-28T00:43:24.777Z,5.45
2022-09-28T00:46:06.617Z,2.78
2022-09-28T00:48:37.428Z,4.60
2022-09-28T00:51:12.159Z,4.05
2022-09-28T00:53:43.557Z,8.90
2022-09-28T00:56:17.518Z,4.00
2022-09-28T00:58:49.368Z,3.00
2022-09-28T01:01:16.994Z,6.70
2022-09-28T01:03:45.785Z,4.72
2022-09-28T01:06:22.113Z,5.95
2022-09-28T01:09:04.330Z,3.45
2022-09-28T01:14:01.044Z,2.40
2022-09-28T01:16:47.061Z,1.60
2022-09-28T01:19:38.578Z,1.73
2022-09-28T01:22:43.374Z,4.43
2022-09-28T01:25:29.147Z,2.40
2022-09-28T01:28:10.142Z,3.33
2022-09-28T01:30:58.925Z,3.40
2022-09-28T01:33:38.824Z,3.80
2022-09-28T01:36:16.427Z,3.25
2022-09-28T01:38:49.514Z,7.03
2022-09-28T01:41:18.197Z,2.42
2022-09-28T01:43:55.613Z,11.25
2022-09-28T01:46:28.402Z,2.10
2022-09-28T01:48:58.085Z,3.80
2022-09-28T01:51:36.599Z,2.65
2022-09-28T01:54:14.491Z,2.92
2022-09-28T01:57:09.697Z,10.93
2022-09-28T01:59:44.231Z,5.25
2022-09-28T02:02:19.139Z,6.18
2022-09-28T02:04:54.059Z,9.27
2022-09-28T02:07:31.392Z,8.63
2022-09-28T02:10:10.628Z,9.82
2022-09-28T02:12:44.710Z,10.32
2022-09-28T02:15:39.889Z,9.63
2022-09-28T02:18:07.811Z,5.32
2022-09-28T02:20:40.852Z,6.72
2022-09-28T02:23:09.505Z,3.72
2022-09-28T02:25:43.147Z,5.40
2022-09-28T02:28:13.558Z,5.53
2022-09-28T02:30:43.625Z,6.07
2022-09-28T02:33:17.150Z,4.17
2022-09-28T02:35:44.740Z,5.53
2022-09-28T02:38:13.765Z,3.03
2022-09-28T02:40:46.071Z,3.20
2022-09-28T02:43:22.201Z,4.97
2022-09-28T02:45:55.217Z,4.15
2022-09-28T02:49:10.596Z,4.95
2022-09-28T02:51:53.342Z,5.50
2022-09-28T02:54:32.809Z,4.18
2022-09-28T02:57:21.792Z,3.78
2022-09-28T03:00:15.089Z,4.30
2022-09-28T03:02:52.742Z,3.78
2022-09-28T03:05:24.959Z,6.70
2022-09-28T03:08:03.431Z,7.80
2022-09-28T03:11:04.587Z,9.90
2022-09-28T03:13:34.556Z,5.78
2022-09-28T03:16:14.039Z,10.07
2022-09-28T03:18:43.187Z,10.70
2022-09-28T03:21:14.932Z,8.15
2022-09-28T03:23:43.200Z,7.90
2022-09-28T03:26:12.966Z,15.35
2022-09-28T03:28:41.160Z,9.60
2022-09-28T03:31:12.446Z,13.77
2022-09-28T03:33:39.695Z,10.00
2022-09-28T03:36:08.827Z,10.07
2022-09-28T03:38:36.689Z,12.63
2022-09-28T03:41:03.963Z,15.32
2022-09-28T03:43:35.380Z,14.75
2022-09-28T03:46:03.952Z,12.73
2022-09-28T03:48:36.338Z,17.60
2022-09-28T03:51:07.038Z,14.13
2022-09-28T03:53:34.265Z,9.40
2022-09-28T03:56:12.601Z,15.40
2022-09-28T03:58:40.643Z,14.25
2022-09-28T04:01:16.611Z,11.43
2022-09-28T04:03:46.293Z,10.68
2022-09-28T04:06:14.699Z,8.75
2022-09-28T04:08:43.152Z,11.23
2022-09-28T04:11:10.362Z,10.10
2022-09-28T04:13:37.856Z,8.40
2022-09-28T04:16:07.844Z,9.68
2022-09-28T04:18:35.942Z,13.65
2022-09-28T04:21:14.536Z,10.25
2022-09-28T04:23:48.871Z,11.35
2022-09-28T04:26:25.009Z,18.52
2022-09-28T04:29:11.159Z,11.07
2022-09-28T04:31:39.584Z,13.75
2022-09-28T04:34:07.173Z,18.40
2022-09-28T04:36:34.498Z,16.48
2022-09-28T04:39:01.649Z,10.43
2022-09-28T04:41:29.764Z,11.52
2022-09-28T04:43:57.001Z,10.93
2022-09-28T04:46:26.295Z,13.45
2022-09-28T04:49:10.701Z,14.40
2022-09-28T04:51:53.364Z,13.88
2022-09-28T04:54:20.479Z,10.80
2022-09-28T04:56:47.792Z,13.70
2022-09-28T04:59:14.963Z,12.93
2022-09-28T05:01:43.363Z,12.82
2022-09-28T05:04:13.476Z,15.65
2022-09-28T05:06:59.415Z,14.18
2022-09-28T05:09:27.125Z,10.70
2022-09-28T05:11:54.379Z,9.93
2022-09-28T05:14:24.910Z,10.13
2022-09-28T05:16:52.810Z,9.10
2022-09-28T05:19:26.538Z,8.00
2022-09-28T05:21:58.413Z,15.02
2022-09-28T05:24:25.720Z,10.02
2022-09-28T05:26:54.013Z,10.43
2022-09-28T05:29:21.316Z,15.32
2022-09-28T05:32:07.134Z,20.92
2022-09-28T05:34:57.637Z,19.73
2022-09-28T05:37:30.036Z,21.50
2022-09-28T05:39:57.991Z,17.77
2022-09-28T05:42:26.321Z,16.52
2022-09-28T05:44:53.929Z,22.00
2022-09-28T05:47:21.055Z,14.10
2022-09-28T05:49:48.382Z,14.98
2022-09-28T05:52:15.550Z,13.65
2022-09-28T05:54:42.799Z,13.00
2022-09-28T05:57:11.479Z,13.77
2022-09-28T05:59:39.174Z,15.25
2022-09-28T06:02:07.163Z,19.90
2022-09-28T06:04:35.253Z,21.30
2022-09-28T06:07:02.671Z,14.75
2022-09-28T06:09:31.040Z,13.30
2022-09-28T06:12:00.025Z,14.98
2022-09-28T06:14:40.401Z,11.65
2022-09-28T06:17:07.734Z,15.70
2022-09-28T06:19:35.478Z,7.97
2022-09-28T06:22:24.673Z,3.38
2022-09-28T06:25:09.931Z,1.98
2022-09-28T06:27:39.338Z,5.38
2022-09-28T06:30:07.481Z,5.50
2022-09-28T06:32:34.771Z,2.40
2022-09-28T06:35:02.255Z,3.38
2022-09-28T06:37:33.083Z,1.58
2022-09-28T06:40:01.919Z,1.80
2022-09-28T06:42:30.361Z,1.20
2022-09-28T06:45:30.855Z,3.22
2022-09-28T06:48:27.977Z,3.92
2022-09-28T06:50:55.526Z,1.52
2022-09-28T06:53:29.286Z,3.85
2022-09-28T06:56:02.845Z,2.15
2022-09-28T06:58:31.572Z,6.57
2022-09-28T07:01:00.114Z,3.22
2022-09-28T07:03:30.046Z,3.83
2022-09-28T07:06:26.848Z,5.45
2022-09-28T07:09:29.567Z,1.10
2022-09-28T07:12:13.587Z,3.35
2022-09-28T07:15:05.307Z,5.60
2022-09-28T07:17:42.548Z,1.10
2022-09-28T07:20:19.083Z,8.65
2022-09-28T07:22:48.028Z,5.50
2022-09-28T07:25:19.855Z,2.65
2022-09-28T07:28:07.373Z,4.90
2022-09-28T07:30:56.608Z,3.75
2022-09-28T07:33:42.639Z,4.72
2022-09-28T07:36:23.319Z,4.20
2022-09-28T07:38:52.653Z,2.95
2022-09-28T07:41:32.228Z,7.43
2022-09-28T07:44:07.763Z,2.22
2022-09-28T07:46:37.211Z,5.25
2022-09-28T07:49:12.309Z,1.20
2022-09-28T07:52:06.448Z,4.38
2022-09-28T07:54:43.518Z,3.20
2022-09-28T07:57:26.196Z,4.90
2022-09-28T08:00:12.961Z,4.30
2022-09-28T08:02:46.615Z,2.00
2022-09-28T08:05:18.271Z,2.22
2022-09-28T08:07:45.883Z,5.28
2022-09-28T08:10:13.562Z,6.72
2022-09-28T08:13:05.470Z,4.45
2022-09-28T08:15:39.916Z,3.85
2022-09-28T08:18:17.451Z,3.30
2022-09-28T08:21:03.597Z,2.78
2022-09-28T08:23:31.264Z,3.75
2022-09-28T08:25:59.109Z,2.42
2022-09-28T08:28:26.596Z,3.15
2022-09-28T08:33:46.482Z,2.42
2022-09-28T08:36:32.215Z,9.07
2022-09-28T08:39:02.440Z,2.20
2022-09-28T08:41:58.737Z,2.55
2022-09-28T08:44:59.139Z,3.20
2022-09-28T08:48:13.661Z,3.10
2022-09-28T08:51:10.989Z,3.92
2022-09-28T08:54:01.177Z,2.13
2022-09-28T08:56:59.527Z,4.18
2022-09-28T08:59:50.069Z,3.00
2022-09-28T09:02:26.182Z,2.35
2022-09-28T09:05:14.885Z,3.25
2022-09-28T09:08:15.971Z,4.93
2022-09-28T09:10:54.271Z,3.05
2022-09-28T09:13:50.350Z,4.10
2022-09-28T09:16:38.677Z,4.40
2022-09-28T09:19:31.061Z,2.90
2022-09-28T09:22:28.572Z,3.42
2022-09-28T09:25:00.809Z,3.53
2022-09-28T09:27:46.209Z,6.18
2022-09-28T09:30:20.290Z,3.17
2022-09-28T09:32:54.430Z,6.25
2022-09-28T09:35:59.151Z,3.70
2022-09-28T09:39:19.036Z,4.38
2022-09-28T09:42:13.945Z,5.25
2022-09-28T09:45:27.770Z,3.28
2022-09-28T09:48:27.281Z,4.03
2022-09-28T09:51:00.121Z,2.90
2022-09-28T09:53:40.881Z,3.15
2022-09-28T09:56:39.805Z,3.85
2022-09-28T09:59:20.025Z,3.88
2022-09-28T10:02:28.852Z,3.33
2022-09-28T10:05:09.665Z,5.55
2022-09-28T10:07:53.751Z,2.55
2022-09-28T10:10:30.448Z,1.52
2022-09-28T10:13:08.971Z,2.03
2022-09-28T10:15:37.196Z,2.65
2022-09-28T10:18:19.386Z,4.22
2022-09-28T10:21:05.615Z,2.03
2022-09-28T10:23:45.073Z,2.47
2022-09-28T10:26:25.380Z,3.08
2022-09-28T10:31:54.563Z,5.80
2022-09-28T10:34:31.197Z,5.03
2022-09-28T10:37:11.395Z,2.08
2022-09-28T10:39:58.930Z,3.85
2022-09-28T10:42:32.846Z,3.50
2022-09-28T10:45:20.901Z,2.15
2022-09-28T10:47:49.862Z,4.65
2022-09-28T10:50:24.234Z,3.15
2022-09-28T10:53:20.416Z,3.83
2022-09-28T10:56:22.684Z,8.88
2022-09-28T10:58:59.389Z,5.57
2022-09-28T11:01:41.633Z,3.33
2022-09-28T11:04:23.192Z,3.75
2022-09-28T11:09:30.522Z,3.42
2022-09-28T11:12:06.848Z,3.13
2022-09-28T11:14:43.836Z,1.67
2022-09-28T11:17:17.854Z,4.60
2022-09-28T11:19:47.438Z,2.55
2022-09-28T11:22:23.881Z,1.95
2022-09-28T11:25:14.917Z,2.47
2022-09-28T11:28:04.941Z,3.22
2022-09-28T11:30:53.047Z,2.33
2022-09-28T11:33:46.407Z,3.80
2022-09-28T11:36:57.326Z,6.78
2022-09-28T11:40:21.747Z,5.00
2022-09-28T11:42:52.408Z,9.48
2022-09-28T11:45:48.292Z,4.57
2022-09-28T11:48:31.712Z,3.72
2022-09-28T11:51:09.094Z,3.05
2022-09-28T11:53:53.386Z,3.15
2022-09-28T11:56:40.417Z,4.28
2022-09-28T11:59:27.764Z,1.17
2022-09-28T12:02:00.952Z,4.82
2022-09-28T12:04:55.113Z,6.32
2022-09-28T12:10:10.136Z,1.15
2022-09-28T12:12:53.624Z,3.25
2022-09-28T12:15:38.238Z,8.38
2022-09-28T12:18:17.771Z,3.00
2022-09-28T12:20:52.289Z,1.88
2022-09-28T12:23:27.087Z,2.47
2022-09-28T12:26:11.017Z,2.53
2022-09-28T12:28:50.135Z,4.70
2022-09-28T12:31:38.146Z,2.92
2022-09-28T12:34:05.511Z,2.33
2022-09-28T12:37:11.321Z,2.88
2022-09-28T12:39:58.963Z,2.42
2022-09-28T12:42:57.651Z,2.03
2022-09-28T12:45:42.869Z,3.53
2022-09-28T12:48:36.342Z,2.72
2022-09-28T12:51:21.979Z,2.78
2022-09-28T12:53:58.201Z,1.67
2022-09-28T12:56:28.919Z,3.65
2022-09-28T12:59:13.588Z,3.30
2022-09-28T13:01:59.797Z,5.18
2022-09-28T13:05:02.613Z,2.05
2022-09-28T13:07:50.048Z,1.48
2022-09-28T13:10:35.994Z,1.77
2022-09-28T13:13:42.627Z,5.25
2022-09-28T13:16:25.398Z,2.03
2022-09-28T13:19:35.121Z,5.78
2022-09-28T13:22:25.515Z,3.08
2022-09-28T13:24:56.993Z,1.92
2022-09-28T13:27:39.966Z,1.52
2022-09-28T13:30:08.511Z,3.97
2022-09-28T13:32:37.497Z,3.08
2022-09-28T13:35:06.624Z,2.47
2022-09-28T13:37:34.805Z,4.05
2022-09-28T13:40:08.598Z,2.40
2022-09-28T13:42:38.932Z,4.38
2022-09-28T13:45:21.592Z,4.17
2022-09-28T13:47:58.328Z,5.68
2022-09-28T13:50:56.871Z,3.35
2022-09-28T13:53:39.708Z,4.68
2022-09-28T13:56:35.174Z,2.83
2022-09-28T13:59:35.264Z,2.30
2022-09-28T14:02:10.989Z,1.17
2022-09-28T14:05:06.501Z,3.00
2022-09-28T14:07:36.802Z,4.35
2022-09-28T14:10:21.228Z,1.33
2022-09-28T14:12:54.488Z,1.05
2022-09-28T14:15:48.442Z,2.28
2022-09-28T14:18:33.639Z,4.22
2022-09-28T14:21:13.804Z,3.33
2022-09-28T14:23:50.788Z,1.60
2022-09-28T14:26:42.006Z,3.33
2022-09-28T14:29:29.882Z,2.72
2022-09-28T14:32:04.150Z,1.75
2022-09-28T14:35:04.559Z,5.70
2022-09-28T14:37:57.699Z,4.90
2022-09-28T14:40:55.520Z,6.97
2022-09-28T14:43:36.077Z,3.10
2022-09-28T14:46:16.969Z,2.63
2022-09-28T14:48:56.293Z,4.28
2022-09-28T14:51:27.081Z,5.30
2022-09-28T14:53:58.488Z,5.45
2022-09-28T14:59:00.895Z,1.15
2022-09-28T15:01:28.362Z,3.88
2022-09-28T15:03:59.647Z,2.67
2022-09-28T15:06:29.744Z,2.58
2022-09-28T15:08:56.880Z,3.90
2022-09-28T15:11:26.412Z,5.18
2022-09-28T15:14:07.242Z,5.70
2022-09-28T15:16:34.794Z,8.75
2022-09-28T15:19:22.651Z,17.95
2022-09-28T15:21:53.391Z,17.40
2022-09-28T15:24:26.501Z,22.33
2022-09-28T15:26:53.718Z,5.10
2022-09-28T15:29:22.977Z,6.35
2022-09-28T15:31:54.259Z,16.45
2022-09-28T15:35:02.312Z,8.07
2022-09-28T15:37:40.252Z,14.68
2022-09-28T15:40:15.687Z,20.45
2022-09-28T15:42:45.418Z,8.95
2022-09-28T15:45:35.117Z,16.75
2022-09-28T15:48:31.105Z,11.25
2022-09-28T15:51:13.211Z,15.02
2022-09-28T15:54:19.337Z,16.90
2022-09-28T15:56:55.141Z,22.92
2022-09-28T15:59:29.522Z,33.00
2022-09-28T16:02:10.754Z,26.55
2022-09-28T16:04:48.335Z,14.50
2022-09-28T16:07:30.577Z,25.80
2022-09-28T16:10:26.311Z,15.23
2022-09-28T16:13:00.503Z,17.95
2022-09-28T16:15:36.841Z,13.13
2022-09-28T16:18:19.061Z,15.68
2022-09-28T16:20:58.944Z,7.35
2022-09-28T16:23:34.422Z,10.52
2022-09-28T16:26:09.434Z,21.83
2022-09-28T16:28:40.307Z,14.90
2022-09-28T16:31:15.323Z,12.32
2022-09-28T16:33:59.173Z,8.30
2022-09-28T16:36:30.045Z,12.88
2022-09-28T16:38:57.478Z,25.45
2022-09-28T16:41:29.098Z,28.10
2022-09-28T16:44:02.367Z,28.30
2022-09-28T16:46:37.611Z,17.63
2022-09-28T16:49:07.088Z,23.02
2022-09-28T16:51:34.206Z,32.00
2022-09-28T16:54:48.268Z,26.63
2022-09-28T16:57:15.823Z,21.08
2022-09-28T16:59:43.509Z,21.58
2022-09-28T17:02:42.184Z,15.95
2022-09-28T17:05:07.089Z,8.35
2022-09-28T17:07:34.781Z,8.52
2022-09-28T17:10:02.081Z,8.63
2022-09-28T17:12:31.536Z,10.95
2022-09-28T17:15:00.378Z,11.70
2022-09-28T17:17:29.984Z,8.00
2022-09-28T17:19:57.780Z,11.10
2022-09-28T17:22:25.131Z,14.02
2022-09-28T17:24:52.598Z,14.32
2022-09-28T17:27:21.815Z,16.08
2022-09-28T17:29:51.504Z,17.00
2022-09-28T17:32:19.871Z,21.35
2022-09-28T17:34:55.994Z,30.52
2022-09-28T17:37:36.317Z,25.08
2022-09-28T17:40:16.440Z,22.05
2022-09-28T17:42:43.998Z,16.15
2022-09-28T17:45:11.176Z,17.35
2022-09-28T17:47:38.236Z,11.75
2022-09-28T17:50:22.624Z,17.02
2022-09-28T17:52:54.304Z,11.52
2022-09-28T17:55:30.532Z,12.25
2022-09-28T17:57:59.062Z,7.60
2022-09-28T18:00:28.801Z,12.63
2022-09-28T18:02:57.708Z,7.38
2022-09-28T18:05:27.097Z,12.60
2022-09-28T18:07:55.758Z,15.18
2022-09-28T18:10:24.502Z,27.85
2022-09-28T18:12:52.070Z,11.80
2022-09-28T18:15:19.786Z,15.75
2022-09-28T18:17:48.384Z,18.35
2022-09-28T18:20:16.290Z,13.68
2022-09-28T18:22:44.671Z,16.27
2022-09-28T18:25:13.857Z,13.90
2022-09-28T18:27:41.067Z,12.95
2022-09-28T18:30:08.877Z,12.13
2022-09-28T18:32:37.209Z,17.27
2022-09-28T18:35:08.202Z,26.33
2022-09-28T18:37:40.100Z,18.75
2022-09-28T18:40:12.929Z,13.25
2022-09-28T18:42:54.765Z,8.68
2022-09-28T18:45:29.537Z,9.00
2022-09-28T18:47:58.090Z,12.05
2022-09-28T18:50:25.797Z,10.02
2022-09-28T18:52:53.007Z,5.18
2022-09-28T18:55:20.278Z,18.23
2022-09-28T18:57:55.273Z,14.90
2022-09-28T19:00:22.744Z,13.15
2022-09-28T19:02:50.314Z,9.50
2022-09-28T19:05:17.781Z,12.32
2022-09-28T19:07:44.826Z,13.50
2022-09-28T19:10:12.158Z,14.98
2022-09-28T19:12:39.134Z,8.65
2022-09-28T19:15:07.006Z,10.57
2022-09-28T19:17:34.219Z,9.15
2022-09-28T19:20:01.561Z,6.57
2022-09-28T19:22:31.576Z,12.13
2022-09-28T19:24:58.932Z,7.00
2022-09-28T19:27:25.969Z,5.63
2022-09-28T19:29:53.169Z,5.15
2022-09-28T19:32:20.157Z,9.60
2022-09-28T19:34:47.530Z,7.43
2022-09-28T19:37:14.805Z,12.93
2022-09-28T19:39:41.811Z,7.70
2022-09-28T19:42:08.834Z,7.10
2022-09-28T19:44:37.478Z,4.97
2022-09-28T19:47:08.080Z,5.85
2022-09-28T19:49:37.273Z,5.40
2022-09-28T19:52:14.259Z,6.32
2022-09-28T19:54:57.074Z,7.53
2022-09-28T19:57:27.780Z,4.68
2022-09-28T20:00:00.940Z,4.63
2022-09-28T20:02:34.595Z,12.82
2022-09-28T20:05:02.267Z,4.32
2022-09-28T20:07:33.138Z,12.30
2022-09-28T20:10:00.418Z,8.77
2022-09-28T20:12:27.552Z,6.30
2022-09-28T20:14:54.947Z,12.40
2022-09-28T20:17:22.197Z,9.02
2022-09-28T20:19:51.873Z,5.10
2022-09-28T20:22:20.105Z,6.30
2022-09-28T20:24:47.547Z,7.63
2022-09-28T20:27:14.649Z,9.23
2022-09-28T20:29:43.117Z,10.15
2022-09-28T20:32:11.574Z,5.95
2022-09-28T20:34:38.904Z,4.50
2022-09-28T20:37:05.955Z,9.57
2022-09-28T20:39:33.127Z,11.77
2022-09-28T20:42:00.350Z,6.60
2022-09-28T20:44:27.499Z,8.98
2022-09-28T20:46:54.718Z,3.70
2022-09-28T20:49:21.974Z,10.98
2022-09-28T20:51:49.071Z,9.50
2022-09-28T20:54:16.211Z,7.70
2022-09-28T20:56:43.362Z,2.83
2022-09-28T20:59:12.109Z,4.10
2022-09-28T21:01:40.030Z,9.80
2022-09-28T21:04:08.694Z,8.32
2022-09-28T21:06:38.407Z,9.43
2022-09-28T21:09:07.653Z,8.43
2022-09-28T21:11:35.908Z,7.43
2022-09-28T21:14:06.470Z,6.82
2022-09-28T21:16:35.276Z,6.83
2022-09-28T21:19:03.072Z,4.80
2022-09-28T21:21:30.485Z,5.07
2022-09-28T21:23:58.247Z,5.72
2022-09-28T21:26:28.011Z,3.05
2022-09-28T21:28:57.968Z,8.43
2022-09-28T21:31:29.059Z,9.68
2022-09-28T21:33:57.943Z,2.85
2022-09-28T21:36:25.952Z,3.92
2022-09-28T21:38:54.522Z,13.50
2022-09-28T21:41:22.087Z,5.95
2022-09-28T21:43:49.401Z,7.70
2022-09-28T21:46:17.750Z,5.43
2022-09-28T21:48:45.354Z,4.22
2022-09-28T21:51:16.187Z,4.53
2022-09-28T21:53:43.353Z,5.93
2022-09-28T21:56:12.786Z,5.22
2022-09-28T21:58:40.791Z,6.18
2022-09-28T22:01:14.811Z,6.10
2022-09-28T22:03:47.653Z,5.00
2022-09-28T22:06:19.678Z,3.13
2022-09-28T22:08:48.056Z,7.97
2022-09-28T22:11:17.302Z,4.32
2022-09-28T22:13:53.958Z,7.68
2022-09-28T22:16:23.321Z,4.63
2022-09-28T22:18:57.050Z,2.58
2022-09-28T22:21:31.961Z,9.00
2022-09-28T22:24:01.536Z,5.78
2022-09-28T22:26:30.131Z,5.80
2022-09-28T22:29:00.003Z,3.72
2022-09-28T22:31:29.560Z,9.50
2022-09-28T22:33:56.998Z,7.75
2022-09-28T22:36:24.521Z,8.77
2022-09-28T22:38:59.441Z,2.60
2022-09-28T22:41:32.931Z,6.97
2022-09-28T22:44:01.175Z,3.50
2022-09-28T22:46:32.810Z,4.25
2022-09-28T22:49:00.944Z,6.03
2022-09-28T22:51:35.817Z,2.83
2022-09-28T22:54:04.902Z,2.33
2022-09-28T22:56:32.035Z,19.23
2022-09-28T22:58:59.564Z,6.82
2022-09-28T23:01:41.028Z,5.50
2022-09-28T23:04:09.366Z,12.90
2022-09-28T23:06:36.616Z,3.28
2022-09-28T23:09:04.024Z,2.30
2022-09-28T23:11:31.322Z,10.10
2022-09-28T23:13:59.678Z,3.90
2022-09-28T23:16:27.736Z,5.78
2022-09-28T23:18:55.666Z,5.82
2022-09-28T23:21:25.231Z,7.10
2022-09-28T23:24:03.515Z,4.65
2022-09-28T23:26:32.972Z,7.00
2022-09-28T23:29:00.806Z,3.08
2022-09-28T23:31:31.087Z,4.05
2022-09-28T23:34:03.681Z,2.25
2022-09-28T23:36:31.232Z,4.90
2022-09-28T23:38:58.895Z,3.65
2022-09-28T23:41:26.202Z,5.95
2022-09-28T23:43:53.300Z,5.00
2022-09-28T23:46:21.217Z,5.82
2022-09-28T23:48:49.248Z,5.75
2022-09-28T23:51:16.416Z,5.90
2022-09-28T23:53:43.683Z,3.97
2022-09-28T23:56:11.206Z,7.40
2022-09-28T23:58:38.435Z,3.38
